createdAt,value
2022-11-29T00:01:12.465Z,13.25
2022-11-29T00:03:40.677Z,12.50
2022-11-29T00:06:11.363Z,12.73
2022-11-29T00:08:41.316Z,13.23
2022-11-29T00:11:11.703Z,12.65
2022-11-29T00:13:39.195Z,11.68
2022-11-29T00:16:10.535Z,13.63
2022-11-29T00:18:39.019Z,12.93
2022-11-29T00:21:07.949Z,12.27
2022-11-29T00:23:36.880Z,12.95
2022-11-29T00:26:08.224Z,13.90
2022-11-29T00:28:37.413Z,13.32
2022-11-29T00:31:15.600Z,13.65
2022-11-29T00:33:43.839Z,14.27
2022-11-29T00:36:12.643Z,13.95
2022-11-29T00:38:41.169Z,16.58
2022-11-29T00:41:11.437Z,13.40
2022-11-29T00:43:40.131Z,16.27
2022-11-29T00:46:09.001Z,15.18
2022-11-29T00:48:37.754Z,15.52
2022-11-29T00:51:07.216Z,15.23
2022-11-29T00:53:36.245Z,16.08
2022-11-29T00:56:06.377Z,14.75
2022-11-29T00:58:36.930Z,16.02
2022-11-29T01:01:05.974Z,14.38
2022-11-29T01:03:35.136Z,14.25
2022-11-29T01:06:04.208Z,15.25
2022-11-29T01:08:32.384Z,15.88
2022-11-29T01:11:05.709Z,15.07
2022-11-29T01:13:35.634Z,15.45
2022-11-29T01:16:04.144Z,14.65
2022-11-29T01:18:32.871Z,14.50
2022-11-29T01:21:03.136Z,14.80
2022-11-29T01:23:31.404Z,16.15
2022-11-29T01:26:00.961Z,14.73
2022-11-29T01:28:29.771Z,13.40
2022-11-29T01:30:59.427Z,15.57
2022-11-29T01:33:27.648Z,15.23
2022-11-29T01:35:56.437Z,17.60
2022-11-29T01:38:24.631Z,16.80
2022-11-29T01:41:05.528Z,14.52
2022-11-29T01:43:34.060Z,17.63
2022-11-29T01:46:03.728Z,16.73
2022-11-29T01:48:34.167Z,16.88
2022-11-29T01:51:03.165Z,17.17
2022-11-29T01:53:31.378Z,19.30
2022-11-29T01:56:05.627Z,16.30
2022-11-29T01:58:34.376Z,15.93
2022-11-29T02:01:03.949Z,17.35
2022-11-29T02:03:32.192Z,19.98
2022-11-29T02:06:01.273Z,17.42
2022-11-29T02:08:34.914Z,16.20
2022-11-29T02:11:36.406Z,16.73
2022-11-29T02:14:20.867Z,13.40
2022-11-29T02:16:57.208Z,18.55
2022-11-29T02:19:55.380Z,18.65
2022-11-29T02:22:29.957Z,16.38
2022-11-29T02:25:11.812Z,16.63
2022-11-29T02:28:17.498Z,18.30
2022-11-29T02:31:10.696Z,15.13
2022-11-29T02:34:16.099Z,18.10
2022-11-29T02:37:00.606Z,16.50
2022-11-29T02:40:01.905Z,15.57
2022-11-29T02:42:57.161Z,15.52
2022-11-29T02:45:37.235Z,14.13
2022-11-29T02:48:19.884Z,14.68
2022-11-29T02:50:59.446Z,15.55
2022-11-29T02:53:33.457Z,15.75
2022-11-29T02:56:11.920Z,14.50
2022-11-29T02:58:50.250Z,16.48
2022-11-29T03:01:24.919Z,16.45
2022-11-29T03:04:05.347Z,14.93
2022-11-29T03:06:40.442Z,17.83
2022-11-29T03:09:15.157Z,17.38
2022-11-29T03:11:49.079Z,15.30
2022-11-29T03:14:25.392Z,17.98
2022-11-29T03:17:05.573Z,15.70
2022-11-29T03:19:56.600Z,15.52
2022-11-29T03:22:40.575Z,16.50
2022-11-29T03:25:14.362Z,16.83
2022-11-29T03:27:45.439Z,14.75
2022-11-29T03:30:18.381Z,14.70
2022-11-29T03:32:53.653Z,14.70
2022-11-29T03:35:28.563Z,16.20
2022-11-29T03:38:03.945Z,13.00
2022-11-29T03:40:40.121Z,13.68
2022-11-29T03:43:14.720Z,14.32
2022-11-29T03:45:49.758Z,14.02
2022-11-29T03:48:23.112Z,15.23
2022-11-29T03:50:54.949Z,15.15
2022-11-29T03:53:36.758Z,15.35
2022-11-29T03:56:23.890Z,13.02
2022-11-29T03:58:58.560Z,14.25
2022-11-29T04:02:07.057Z,15.18
2022-11-29T04:05:04.312Z,14.50
2022-11-29T04:07:45.348Z,14.30
2022-11-29T04:10:28.729Z,14.43
2022-11-29T04:13:27.852Z,14.02
2022-11-29T04:16:27.945Z,14.02
2022-11-29T04:19:37.848Z,13.68
2022-11-29T04:22:21.452Z,12.73
2022-11-29T04:25:22.676Z,13.15
2022-11-29T04:28:25.712Z,12.90
2022-11-29T04:31:04.836Z,12.35
2022-11-29T04:34:11.297Z,13.20
2022-11-29T04:37:06.036Z,11.80
2022-11-29T04:39:50.715Z,11.80
2022-11-29T04:42:41.889Z,13.07
2022-11-29T04:45:36.533Z,13.73
2022-11-29T04:48:18.259Z,12.80
2022-11-29T04:50:57.184Z,11.80
2022-11-29T04:53:43.276Z,13.82
2022-11-29T04:56:20.503Z,12.15
2022-11-29T04:58:59.533Z,12.02
2022-11-29T05:01:37.774Z,11.88
2022-11-29T05:04:18.490Z,12.52
2022-11-29T05:06:58.565Z,10.93
2022-11-29T05:09:34.017Z,10.48
2022-11-29T05:12:10.793Z,13.05
2022-11-29T05:14:51.789Z,11.85
2022-11-29T05:17:34.629Z,11.82
2022-11-29T05:20:18.861Z,9.05
2022-11-29T05:22:58.582Z,11.65
2022-11-29T05:25:46.325Z,11.70
2022-11-29T05:28:22.148Z,12.93
2022-11-29T05:31:14.158Z,9.77
2022-11-29T05:34:13.054Z,11.65
2022-11-29T05:36:51.198Z,9.95
2022-11-29T05:39:34.805Z,9.95
2022-11-29T05:42:27.043Z,11.57
2022-11-29T05:47:32.827Z,10.05
2022-11-29T05:50:11.405Z,10.90
2022-11-29T05:52:50.868Z,10.45
2022-11-29T05:55:28.436Z,10.45
2022-11-29T05:58:00.229Z,10.95
2022-11-29T06:00:33.005Z,11.88
2022-11-29T06:03:12.011Z,12.75
2022-11-29T06:05:47.400Z,22.42
2022-11-29T06:08:24.725Z,15.15
2022-11-29T06:10:59.178Z,12.40
2022-11-29T06:13:39.654Z,12.27
2022-11-29T06:16:46.904Z,13.18
2022-11-29T06:19:43.787Z,11.18
2022-11-29T06:22:38.742Z,10.25
2022-11-29T06:25:28.706Z,10.75
2022-11-29T06:28:11.144Z,12.10
2022-11-29T06:30:55.465Z,11.07
2022-11-29T06:33:28.108Z,11.57
2022-11-29T06:36:10.939Z,9.95
2022-11-29T06:38:41.562Z,10.48
2022-11-29T06:41:15.305Z,11.63
2022-11-29T06:43:44.236Z,10.32
2022-11-29T06:46:19.231Z,13.38
2022-11-29T06:48:55.491Z,12.70
2022-11-29T06:51:32.648Z,11.88
2022-11-29T06:54:15.087Z,11.75
2022-11-29T06:56:48.144Z,12.15
2022-11-29T06:59:42.839Z,11.02
2022-11-29T07:02:29.094Z,12.38
2022-11-29T07:05:14.085Z,11.90
2022-11-29T07:07:43.186Z,10.82
2022-11-29T07:10:18.733Z,11.05
2022-11-29T07:12:48.086Z,11.75
2022-11-29T07:15:18.600Z,10.63
2022-11-29T07:17:58.037Z,14.13
2022-11-29T07:20:36.270Z,11.93
2022-11-29T07:23:14.378Z,12.57
2022-11-29T07:25:56.930Z,13.02
2022-11-29T07:28:36.328Z,13.85
2022-11-29T07:31:12.403Z,14.43
2022-11-29T07:33:49.209Z,13.95
2022-11-29T07:36:27.083Z,14.25
2022-11-29T07:39:04.814Z,12.75
2022-11-29T07:41:41.894Z,13.60
2022-11-29T07:44:20.245Z,16.40
2022-11-29T07:46:48.510Z,15.73
2022-11-29T07:49:18.031Z,15.25
2022-11-29T07:51:46.467Z,14.43
2022-11-29T07:54:17.614Z,14.45
2022-11-29T07:56:47.205Z,19.88
2022-11-29T07:59:15.492Z,17.80
2022-11-29T08:01:43.822Z,14.00
2022-11-29T08:04:12.027Z,15.20
2022-11-29T08:06:40.196Z,19.35
2022-11-29T08:09:08.704Z,16.80
2022-11-29T08:11:36.937Z,17.13
2022-11-29T08:14:06.852Z,18.23
2022-11-29T08:16:35.212Z,20.17
2022-11-29T08:19:03.502Z,19.75
2022-11-29T08:21:31.658Z,20.45
2022-11-29T08:23:59.825Z,19.35
2022-11-29T08:26:31.693Z,21.67
2022-11-29T08:29:00.318Z,20.75
2022-11-29T08:31:29.901Z,21.27
2022-11-29T08:33:58.115Z,23.45
2022-11-29T08:36:26.489Z,22.45
2022-11-29T08:39:02.246Z,23.30
2022-11-29T08:41:34.234Z,21.25
2022-11-29T08:44:02.429Z,20.58
2022-11-29T08:46:45.856Z,21.48
2022-11-29T08:49:14.013Z,19.23
2022-11-29T08:51:42.205Z,18.05
2022-11-29T08:54:09.775Z,17.35
2022-11-29T08:59:28.047Z,17.38
2022-11-29T09:01:57.628Z,19.88
2022-11-29T09:04:25.852Z,20.92
2022-11-29T09:06:54.010Z,19.98
2022-11-29T09:09:22.188Z,20.33
2022-11-29T09:11:50.520Z,18.85
2022-11-29T09:14:19.978Z,18.40
2022-11-29T09:16:48.198Z,20.58
2022-11-29T09:19:18.207Z,19.77
2022-11-29T09:21:46.418Z,16.23
2022-11-29T09:24:14.596Z,17.17
2022-11-29T09:26:46.940Z,18.27
2022-11-29T09:29:16.461Z,18.63
2022-11-29T09:31:45.332Z,17.02
2022-11-29T09:34:13.902Z,21.17
2022-11-29T09:36:44.185Z,13.88
2022-11-29T09:39:13.410Z,16.05
2022-11-29T09:42:03.958Z,17.50
2022-11-29T09:44:41.917Z,17.98
2022-11-29T09:47:23.474Z,18.77
2022-11-29T09:50:16.013Z,17.85
2022-11-29T09:52:53.821Z,22.50
2022-11-29T09:55:44.660Z,19.58
2022-11-29T09:58:21.640Z,19.48
2022-11-29T10:00:51.862Z,19.67
2022-11-29T10:03:25.460Z,18.80
2022-11-29T10:05:58.588Z,20.40
2022-11-29T10:08:34.866Z,18.95
2022-11-29T10:11:17.069Z,22.27
2022-11-29T10:13:51.629Z,21.27
2022-11-29T10:16:26.096Z,24.42
2022-11-29T10:19:02.490Z,18.60
2022-11-29T10:21:37.335Z,16.67
2022-11-29T10:24:14.753Z,16.67
2022-11-29T10:26:43.582Z,18.70
2022-11-29T10:29:14.988Z,18.58
2022-11-29T10:31:46.918Z,17.38
2022-11-29T10:36:46.778Z,18.60
2022-11-29T10:39:22.299Z,19.75
2022-11-29T10:41:55.973Z,16.38
2022-11-29T10:44:24.956Z,18.95
2022-11-29T10:46:54.040Z,15.30
2022-11-29T10:49:28.083Z,18.17
2022-11-29T10:51:56.300Z,15.32
2022-11-29T10:54:38.920Z,16.17
2022-11-29T10:57:15.357Z,16.05
2022-11-29T10:59:58.809Z,16.63
2022-11-29T11:02:27.652Z,18.02
2022-11-29T11:04:56.084Z,22.05
2022-11-29T11:07:28.055Z,18.10
2022-11-29T11:09:59.252Z,16.85
2022-11-29T11:12:29.792Z,25.10
2022-11-29T11:15:28.715Z,17.42
2022-11-29T11:17:59.283Z,17.45
2022-11-29T11:20:30.253Z,19.08
2022-11-29T11:23:00.758Z,17.77
2022-11-29T11:25:34.668Z,21.27
2022-11-29T11:28:18.075Z,19.48
2022-11-29T11:30:52.306Z,19.27
2022-11-29T11:33:23.012Z,15.55
2022-11-29T11:36:04.082Z,17.25
2022-11-29T11:38:32.431Z,19.40
2022-11-29T11:41:44.788Z,19.17
2022-11-29T11:47:19.533Z,17.92
2022-11-29T11:49:50.694Z,17.95
2022-11-29T11:52:23.055Z,18.13
2022-11-29T11:54:55.237Z,16.00
2022-11-29T11:57:26.894Z,17.80
2022-11-29T12:00:02.003Z,15.43
2022-11-29T12:02:39.877Z,15.80
2022-11-29T12:05:13.808Z,14.50
2022-11-29T12:10:36.834Z,17.92
2022-11-29T12:13:06.675Z,15.63
2022-11-29T12:15:38.994Z,15.52
2022-11-29T12:18:12.616Z,20.67
2022-11-29T12:20:45.452Z,21.40
2022-11-29T12:23:25.716Z,19.90
2022-11-29T12:25:57.606Z,34.30
2022-11-29T12:28:30.969Z,83.13
2022-11-29T12:31:12.552Z,84.07
2022-11-29T12:33:48.617Z,38.55
2022-11-29T12:36:29.614Z,27.35
2022-11-29T12:39:17.086Z,19.40
2022-11-29T12:41:54.345Z,16.88
2022-11-29T12:44:45.120Z,16.70
2022-11-29T12:47:35.821Z,17.15
2022-11-29T12:50:27.570Z,14.88
2022-11-29T12:53:06.117Z,17.20
2022-11-29T12:55:46.184Z,16.23
2022-11-29T12:58:23.231Z,12.40
2022-11-29T13:01:05.467Z,15.30
2022-11-29T13:03:41.469Z,15.60
2022-11-29T13:06:21.082Z,14.45
2022-11-29T13:09:10.207Z,14.77
2022-11-29T13:11:41.446Z,13.18
2022-11-29T13:14:42.255Z,13.07
2022-11-29T13:17:25.981Z,11.48
2022-11-29T13:19:59.244Z,15.02
2022-11-29T13:22:33.455Z,14.77
2022-11-29T13:25:05.712Z,13.88
2022-11-29T13:27:39.510Z,11.55
2022-11-29T13:30:09.358Z,14.98
2022-11-29T13:32:46.578Z,11.70
2022-11-29T13:35:24.047Z,12.52
2022-11-29T13:37:56.493Z,14.68
2022-11-29T13:40:37.226Z,12.95
2022-11-29T13:43:16.748Z,14.05
2022-11-29T13:45:53.070Z,14.18
2022-11-29T13:48:35.278Z,13.63
2022-11-29T13:51:25.750Z,13.65
2022-11-29T13:53:55.189Z,13.13
2022-11-29T13:56:42.953Z,12.80
2022-11-29T13:59:19.332Z,15.48
2022-11-29T14:01:50.467Z,18.63
2022-11-29T14:04:29.274Z,12.50
2022-11-29T14:07:12.457Z,19.02
2022-11-29T14:10:00.441Z,18.92
2022-11-29T14:12:38.321Z,14.65
2022-11-29T14:15:28.224Z,13.60
2022-11-29T14:17:58.636Z,13.35
2022-11-29T14:20:59.391Z,11.35
2022-11-29T14:23:40.522Z,13.48
2022-11-29T14:26:28.788Z,12.77
2022-11-29T14:28:57.870Z,12.60
2022-11-29T14:31:52.225Z,13.02
2022-11-29T14:34:51.225Z,10.82
2022-11-29T14:37:31.335Z,12.70
2022-11-29T14:40:03.443Z,11.27
2022-11-29T14:42:32.913Z,15.63
2022-11-29T14:45:04.831Z,15.85
2022-11-29T14:50:06.632Z,16.27
2022-11-29T14:52:40.076Z,21.02
2022-11-29T14:55:28.965Z,29.35
2022-11-29T14:58:19.889Z,21.42
2022-11-29T15:01:08.399Z,45.15
2022-11-29T15:03:45.903Z,19.75
2022-11-29T15:06:25.188Z,15.98
2022-11-29T15:09:02.919Z,17.67
2022-11-29T15:11:51.502Z,17.63
2022-11-29T15:14:33.019Z,14.38
2022-11-29T15:17:15.405Z,15.07
2022-11-29T15:20:06.778Z,17.48
2022-11-29T15:22:47.146Z,19.03
2022-11-29T15:25:20.022Z,29.02
2022-11-29T15:27:52.692Z,31.05
2022-11-29T15:30:23.009Z,23.85
2022-11-29T15:32:51.272Z,18.30
2022-11-29T15:35:20.949Z,13.55
2022-11-29T15:37:50.516Z,14.80
2022-11-29T15:40:22.477Z,13.13
2022-11-29T15:45:33.917Z,17.33
2022-11-29T15:48:14.647Z,24.85
2022-11-29T15:50:48.929Z,19.02
2022-11-29T15:53:20.741Z,16.55
2022-11-29T15:55:53.549Z,20.77
2022-11-29T15:58:22.537Z,21.83
2022-11-29T16:00:52.105Z,27.08
2022-11-29T16:03:25.289Z,22.65
2022-11-29T16:06:01.265Z,27.83
2022-11-29T16:08:34.276Z,31.50
2022-11-29T16:11:03.920Z,20.38
2022-11-29T16:13:38.167Z,18.55
2022-11-29T16:16:12.796Z,18.35
2022-11-29T16:18:43.313Z,16.35
2022-11-29T16:21:25.515Z,24.05
2022-11-29T16:23:53.919Z,33.88
2022-11-29T16:26:29.550Z,43.88
2022-11-29T16:28:58.630Z,35.58
2022-11-29T16:31:35.823Z,26.42
2022-11-29T16:34:09.636Z,25.05
2022-11-29T16:36:38.039Z,19.15
2022-11-29T16:39:08.219Z,19.17
2022-11-29T16:41:39.916Z,16.58
2022-11-29T16:44:54.486Z,31.38
2022-11-29T16:47:24.519Z,26.77
2022-11-29T16:50:14.755Z,19.10
2022-11-29T16:52:42.944Z,20.33
2022-11-29T16:55:11.986Z,14.75
2022-11-29T16:57:42.163Z,16.77
2022-11-29T17:00:24.344Z,16.45
2022-11-29T17:02:52.585Z,14.48
2022-11-29T17:05:20.809Z,15.27
2022-11-29T17:07:49.452Z,15.45
2022-11-29T17:10:19.988Z,14.20
2022-11-29T17:12:50.170Z,18.48
2022-11-29T17:15:18.848Z,15.48
2022-11-29T17:17:47.210Z,11.98
2022-11-29T17:20:15.660Z,15.07
2022-11-29T17:22:43.842Z,14.50
2022-11-29T17:25:12.317Z,17.25
2022-11-29T17:27:40.504Z,15.07
2022-11-29T17:30:11.458Z,15.30
2022-11-29T17:32:39.692Z,14.40
2022-11-29T17:35:08.478Z,14.25
2022-11-29T17:37:36.691Z,13.43
2022-11-29T17:40:05.497Z,14.60
2022-11-29T17:42:33.689Z,15.52
2022-11-29T17:45:01.885Z,16.70
2022-11-29T17:47:31.530Z,15.63
2022-11-29T17:49:59.699Z,17.67
2022-11-29T17:52:27.873Z,18.73
2022-11-29T17:54:56.048Z,16.05
2022-11-29T17:57:24.904Z,19.17
2022-11-29T17:59:53.052Z,19.27
2022-11-29T18:02:21.278Z,19.80
2022-11-29T18:04:50.882Z,18.33
2022-11-29T18:07:19.093Z,25.80
2022-11-29T18:09:48.860Z,43.28
2022-11-29T18:12:17.232Z,53.15
2022-11-29T18:14:45.398Z,46.13
2022-11-29T18:17:13.685Z,41.90
2022-11-29T18:19:42.254Z,42.70
2022-11-29T18:22:11.803Z,41.30
2022-11-29T18:24:43.454Z,49.20
2022-11-29T18:27:11.647Z,50.60
2022-11-29T18:29:39.844Z,53.70
2022-11-29T18:32:08.031Z,40.65
2022-11-29T18:34:36.197Z,24.23
2022-11-29T18:37:04.601Z,20.80
2022-11-29T18:39:34.229Z,21.20
2022-11-29T18:42:02.482Z,21.75
2022-11-29T18:44:30.645Z,17.75
2022-11-29T18:46:58.840Z,26.55
2022-11-29T18:49:27.020Z,23.30
2022-11-29T18:51:55.194Z,24.60
2022-11-29T18:54:23.352Z,21.30
2022-11-29T18:56:52.933Z,18.65
2022-11-29T18:59:22.968Z,15.80
2022-11-29T19:01:51.247Z,19.90
2022-11-29T19:04:21.567Z,29.88
2022-11-29T19:06:50.217Z,68.18
2022-11-29T19:09:21.012Z,54.05
2022-11-29T19:11:49.993Z,40.40
2022-11-29T19:14:20.438Z,31.50
2022-11-29T19:16:50.598Z,24.27
2022-11-29T19:19:19.904Z,19.63
2022-11-29T19:21:49.283Z,19.35
2022-11-29T19:24:18.337Z,17.17
2022-11-29T19:26:48.146Z,19.23
2022-11-29T19:29:17.363Z,15.43
2022-11-29T19:31:46.994Z,18.23
2022-11-29T19:34:15.360Z,13.32
2022-11-29T19:36:44.824Z,14.90
2022-11-29T19:39:14.950Z,16.63
2022-11-29T19:41:44.752Z,13.05
2022-11-29T19:44:13.808Z,13.23
2022-11-29T19:46:43.945Z,14.50
2022-11-29T19:49:14.021Z,15.15
2022-11-29T19:51:42.410Z,14.23
2022-11-29T19:54:11.933Z,13.55
2022-11-29T19:56:40.756Z,15.48
2022-11-29T19:59:09.460Z,17.55
2022-11-29T20:01:42.679Z,13.90
2022-11-29T20:04:16.465Z,15.20
2022-11-29T20:06:45.492Z,20.30
2022-11-29T20:09:15.085Z,23.38
2022-11-29T20:11:43.947Z,34.60
2022-11-29T20:14:14.483Z,30.00
2022-11-29T20:16:43.647Z,26.52
2022-11-29T20:19:15.031Z,27.25
2022-11-29T20:21:45.237Z,30.02
2022-11-29T20:24:15.041Z,28.95
2022-11-29T20:26:44.919Z,24.67
2022-11-29T20:29:14.238Z,23.75
2022-11-29T20:31:49.687Z,24.27
2022-11-29T20:34:21.839Z,22.13
2022-11-29T20:37:16.979Z,24.40
2022-11-29T20:39:51.157Z,24.00
2022-11-29T20:42:45.512Z,23.58
2022-11-29T20:45:15.981Z,27.52
2022-11-29T20:47:51.151Z,23.92
2022-11-29T20:50:23.823Z,20.42
2022-11-29T20:53:04.078Z,23.23
2022-11-29T20:55:32.277Z,19.40
2022-11-29T20:58:00.434Z,31.90
2022-11-29T21:00:28.617Z,30.30
2022-11-29T21:02:56.802Z,25.83
2022-11-29T21:05:26.400Z,25.70
2022-11-29T21:07:54.606Z,21.65
2022-11-29T21:10:22.964Z,25.77
2022-11-29T21:12:51.665Z,26.95
2022-11-29T21:15:20.667Z,22.77
2022-11-29T21:17:49.494Z,18.88
2022-11-29T21:20:21.827Z,18.40
2022-11-29T21:22:59.158Z,15.35
2022-11-29T21:25:38.757Z,21.55
2022-11-29T21:28:11.751Z,15.98
2022-11-29T21:30:40.578Z,18.10
2022-11-29T21:33:09.959Z,16.27
2022-11-29T21:35:39.971Z,15.60
2022-11-29T21:38:14.455Z,18.65
2022-11-29T21:40:42.631Z,23.38
2022-11-29T21:43:10.816Z,20.17
2022-11-29T21:45:39.006Z,19.25
2022-11-29T21:48:28.648Z,18.05
2022-11-29T21:50:57.636Z,15.63
2022-11-29T21:53:27.983Z,27.00
2022-11-29T21:55:59.699Z,36.33
2022-11-29T21:58:29.816Z,52.95
2022-11-29T22:00:58.218Z,66.50
2022-11-29T22:03:26.397Z,92.97
2022-11-29T22:05:54.561Z,95.82
2022-11-29T22:08:22.735Z,115.15
2022-11-29T22:11:01.671Z,95.78
2022-11-29T22:13:29.870Z,57.42
2022-11-29T22:16:05.963Z,33.47
2022-11-29T22:18:34.176Z,25.55
2022-11-29T22:21:07.208Z,22.10
2022-11-29T22:23:35.808Z,23.98
2022-11-29T22:26:07.189Z,19.23
2022-11-29T22:28:36.438Z,17.85
2022-11-29T22:31:06.578Z,17.77
2022-11-29T22:33:35.364Z,41.72
2022-11-29T22:36:05.038Z,46.90
2022-11-29T22:38:33.614Z,84.47
2022-11-29T22:41:02.968Z,73.07
2022-11-29T22:43:33.252Z,58.67
2022-11-29T22:46:08.358Z,41.08
2022-11-29T22:48:39.142Z,31.88
2022-11-29T22:51:09.545Z,24.27
2022-11-29T22:53:38.893Z,24.80
2022-11-29T22:56:09.308Z,28.83
2022-11-29T22:58:39.403Z,26.17
2022-11-29T23:01:09.835Z,36.28
2022-11-29T23:03:39.466Z,27.98
2022-11-29T23:06:09.788Z,25.63
2022-11-29T23:08:38.674Z,29.67
2022-11-29T23:11:09.147Z,31.63
2022-11-29T23:13:40.313Z,20.98
2022-11-29T23:16:11.077Z,20.67
2022-11-29T23:18:40.020Z,18.70
2022-11-29T23:21:10.420Z,23.05
2022-11-29T23:23:39.031Z,23.77
2022-11-29T23:26:08.290Z,19.75
2022-11-29T23:28:38.330Z,19.38
2022-11-29T23:31:06.508Z,19.42
2022-11-29T23:33:34.668Z,16.77
2022-11-29T23:36:05.048Z,16.35
2022-11-29T23:38:33.620Z,20.27
2022-11-29T23:41:02.088Z,22.08
2022-11-29T23:43:30.719Z,20.05
2022-11-29T23:46:00.661Z,25.15
2022-11-29T23:48:28.841Z,24.05
2022-11-29T23:50:57.020Z,18.85
2022-11-29T23:53:25.383Z,21.67
2022-11-29T23:55:58.183Z,20.33
2022-11-29T23:58:26.648Z,27.85
